PWSweather.com
Personal Weather Stations
Station Observations
MBORO100
Brandywood , Murfreesboro, TN 37130

Brandywood Murfreesboro, TN 37130

Lat: 35.908093, Lon: -86.31352

Elevation: 690

Station Type: Davis

Latest ConditionsUpdated 3:55:00 AM CDT Tuesday, Oct 16, 2018
Currently Today's Max Today's Min Today's Average
Temperature 50.3°F10.2°C 52.6°F11.4°C 50.3°F10.2°C 51.8°F11.0°C
Dew Point 48.9°F9.4°C 51.2°F10.7°C 48.7°F9.3°C 50.2°F10.1°C
Winds Calm Calm Calm -Calm - - Calm Calm
Wind Gusts -- -- - -
Humidity 95% 95% 93% 94%
Pressure 30.25 in1024.4 mb 30.26 in1024.7 mb 30.22 in1023.4 mb -
Hour Temp Dew Point Humidity Winds Wind Gusts Pressure Precip Precip Rate Daily Precip Total
03:55 AM 50.3°F10.2°C 48.9°F9.4°C 95% Calm Calm -- 30.25 in1024.4 mb - 0.00 in0.0 mm 0.00 in0.0 mm
03:50 AM 50.4°F10.2°C 48.7°F9.3°C 94% Calm Calm -- 30.24 in1024.0 mb - 0.00 in0.0 mm 0.00 in0.0 mm
03:45 AM 50.5°F10.3°C 48.9°F9.4°C 94% Calm Calm -- 30.25 in1024.4 mb - 0.00 in0.0 mm 0.00 in0.0 mm
03:40 AM 50.9°F10.5°C 49.2°F9.6°C 94% Calm Calm -- 30.25 in1024.4 mb - 0.00 in0.0 mm 0.00 in0.0 mm
03:35 AM 51.0°F10.6°C 49.3°F9.6°C 94% Calm Calm -- 30.25 in1024.4 mb - 0.00 in0.0 mm 0.00 in0.0 mm
03:30 AM 51.1°F10.6°C 49.4°F9.7°C 94% Calm Calm -- 30.26 in1024.7 mb - 0.00 in0.0 mm 0.00 in0.0 mm
03:25 AM 51.2°F10.7°C 49.8°F9.9°C 95% Calm Calm -- 30.24 in1024.0 mb - 0.00 in0.0 mm 0.00 in0.0 mm
03:20 AM 51.2°F10.7°C 49.5°F9.7°C 94% Calm Calm -- 30.24 in1024.0 mb - 0.00 in0.0 mm 0.00 in0.0 mm
03:15 AM 51.2°F10.7°C 49.5°F9.7°C 94% Calm Calm -- 30.24 in1024.0 mb - 0.00 in0.0 mm 0.00 in0.0 mm
03:10 AM 51.2°F10.7°C 49.8°F9.9°C 95% Calm Calm -- 30.24 in1024.0 mb - 0.00 in0.0 mm 0.00 in0.0 mm
03:00 AM 51.2°F10.7°C 49.5°F9.7°C 94% Calm Calm -- 30.23 in1023.7 mb - 0.00 in0.0 mm 0.00 in0.0 mm
02:55 AM 51.4°F10.8°C 49.7°F9.8°C 94% Calm Calm -- 30.23 in1023.7 mb - 0.00 in0.0 mm 0.00 in0.0 mm
02:50 AM 51.5°F10.8°C 49.8°F9.9°C 94% Calm Calm -- 30.24 in1024.0 mb - 0.00 in0.0 mm 0.00 in0.0 mm
02:45 AM 51.6°F10.9°C 49.9°F9.9°C 94% Calm Calm -- 30.25 in1024.4 mb - 0.00 in0.0 mm 0.00 in0.0 mm
02:40 AM 51.8°F11.0°C 50.1°F10.1°C 94% Calm Calm -- 30.25 in1024.4 mb - 0.00 in0.0 mm 0.00 in0.0 mm
02:35 AM 52.0°F11.1°C 50.3°F10.2°C 94% Calm Calm -- 30.25 in1024.4 mb - 0.00 in0.0 mm 0.00 in0.0 mm
02:30 AM 52.0°F11.1°C 50.3°F10.2°C 94% Calm Calm -- 30.25 in1024.4 mb - 0.00 in0.0 mm 0.00 in0.0 mm
02:25 AM 52.1°F11.2°C 50.4°F10.2°C 94% Calm Calm -- 30.24 in1024.0 mb - 0.00 in0.0 mm 0.00 in0.0 mm
02:20 AM 52.1°F11.2°C 50.5°F10.3°C 94% Calm Calm -- 30.24 in1024.0 mb - 0.00 in0.0 mm 0.00 in0.0 mm
02:15 AM 52.1°F11.2°C 50.5°F10.3°C 94% Calm Calm -- 30.24 in1024.0 mb - 0.00 in0.0 mm 0.00 in0.0 mm
02:10 AM 52.1°F11.2°C 50.4°F10.2°C 94% Calm Calm -- 30.24 in1024.0 mb - 0.00 in0.0 mm 0.00 in0.0 mm
02:00 AM 52.1°F11.2°C 50.4°F10.2°C 94% Calm Calm -- 30.24 in1024.0 mb - 0.00 in0.0 mm 0.00 in0.0 mm
01:55 AM 52.1°F11.2°C 50.4°F10.2°C 94% Calm Calm -- 30.24 in1024.0 mb - 0.00 in0.0 mm 0.00 in0.0 mm
01:50 AM 52.0°F11.1°C 50.4°F10.2°C 94% Calm Calm -- 30.23 in1023.7 mb - 0.00 in0.0 mm 0.00 in0.0 mm
01:45 AM 52.1°F11.2°C 50.4°F10.2°C 94% Calm Calm -- 30.23 in1023.7 mb - 0.00 in0.0 mm 0.00 in0.0 mm
01:40 AM 52.2°F11.2°C 50.5°F10.3°C 94% Calm Calm -- 30.23 in1023.7 mb - 0.00 in0.0 mm 0.00 in0.0 mm
01:35 AM 52.1°F11.2°C 50.4°F10.2°C 94% Calm Calm -- 30.23 in1023.7 mb - 0.00 in0.0 mm 0.00 in0.0 mm
01:30 AM 52.2°F11.2°C 50.5°F10.3°C 94% Calm Calm -- 30.23 in1023.7 mb - 0.00 in0.0 mm 0.00 in0.0 mm
01:25 AM 52.1°F11.2°C 50.4°F10.2°C 94% Calm Calm -- 30.23 in1023.7 mb - 0.00 in0.0 mm 0.00 in0.0 mm
01:20 AM 52.2°F11.2°C 50.5°F10.3°C 94% Calm Calm -- 30.24 in1024.0 mb - 0.00 in0.0 mm 0.00 in0.0 mm
01:15 AM 52.2°F11.2°C 50.5°F10.3°C 94% Calm Calm -- 30.25 in1024.4 mb - 0.00 in0.0 mm 0.00 in0.0 mm
01:10 AM 52.1°F11.2°C 50.4°F10.2°C 94% Calm Calm -- 30.25 in1024.4 mb - 0.00 in0.0 mm 0.00 in0.0 mm
01:00 AM 52.2°F11.2°C 50.5°F10.3°C 94% Calm Calm -- 30.23 in1023.7 mb - 0.00 in0.0 mm 0.00 in0.0 mm
12:55 AM 52.1°F11.2°C 50.1°F10.1°C 93% Calm Calm -- 30.22 in1023.4 mb - 0.00 in0.0 mm 0.00 in0.0 mm
12:50 AM 52.1°F11.2°C 50.5°F10.3°C 94% Calm Calm -- 30.23 in1023.7 mb - 0.00 in0.0 mm 0.00 in0.0 mm
12:45 AM 52.1°F11.2°C 50.5°F10.3°C 94% Calm Calm -- 30.23 in1023.7 mb - 0.00 in0.0 mm 0.00 in0.0 mm
12:40 AM 52.2°F11.2°C 50.5°F10.3°C 94% Calm Calm -- 30.23 in1023.7 mb - 0.00 in0.0 mm 0.00 in0.0 mm
12:35 AM 52.2°F11.2°C 50.6°F10.3°C 94% Calm Calm -- 30.24 in1024.0 mb - 0.00 in0.0 mm 0.00 in0.0 mm
12:30 AM 52.3°F11.3°C 50.6°F10.3°C 94% Calm Calm -- 30.24 in1024.0 mb - 0.00 in0.0 mm 0.00 in0.0 mm
12:25 AM 52.4°F11.3°C 50.7°F10.4°C 94% Calm Calm -- 30.23 in1023.7 mb - 0.00 in0.0 mm 0.00 in0.0 mm
12:20 AM 52.5°F11.4°C 51.1°F10.6°C 95% Calm Calm -- 30.23 in1023.7 mb - 0.00 in0.0 mm 0.00 in0.0 mm
12:15 AM 52.6°F11.4°C 51.2°F10.7°C 95% Calm Calm -- 30.23 in1023.7 mb - 0.00 in0.0 mm 0.00 in0.0 mm
12:10 AM 52.6°F11.4°C 51.2°F10.7°C 95% Calm Calm -- 30.23 in1023.7 mb - 0.00 in0.0 mm 0.00 in0.0 mm
12:00 AM 52.5°F11.4°C 50.8°F10.4°C 94% Calm Calm -- 30.23 in1023.7 mb - 0.00 in0.0 mm 0.00 in0.0 mm